createdAt,value
2019-02-08T00:02:25.498Z,100901.95
2019-02-08T00:04:51.893Z,100903.39
2019-02-08T00:07:17.952Z,100901.59
2019-02-08T00:09:43.953Z,100907.70
2019-02-08T00:12:09.960Z,100902.56
2019-02-08T00:14:35.981Z,100910.23
2019-02-08T00:17:01.981Z,100906.29
2019-02-08T00:19:27.951Z,100912.75
2019-02-08T00:21:53.949Z,100919.11
2019-02-08T00:24:19.988Z,100917.42
2019-02-08T00:26:46.313Z,100915.50
2019-02-08T00:29:12.292Z,100910.23
2019-02-08T00:31:38.389Z,100914.67
2019-02-08T00:34:04.447Z,100916.25
2019-02-08T00:36:30.433Z,100911.45
2019-02-08T00:38:56.420Z,100912.64
2019-02-08T00:41:22.409Z,100912.42
2019-02-08T00:43:48.408Z,100917.80
2019-02-08T00:46:14.372Z,100909.08
2019-02-08T00:48:40.793Z,100909.91
2019-02-08T00:51:06.786Z,100912.09
2019-02-08T00:53:33.659Z,100902.28
2019-02-08T00:55:59.937Z,100906.57
2019-02-08T00:58:25.915Z,100911.61
2019-02-08T01:00:51.932Z,100911.83
2019-02-08T01:03:18.060Z,100909.69
2019-02-08T01:05:44.067Z,100910.78
2019-02-08T01:08:10.047Z,100907.33
2019-02-08T01:10:36.428Z,100907.44
2019-02-08T01:13:02.452Z,100909.73
2019-02-08T01:15:28.524Z,100907.81
2019-02-08T01:17:54.536Z,100911.05
2019-02-08T01:20:20.562Z,100906.01
2019-02-08T01:22:46.619Z,100906.01
2019-02-08T01:25:12.655Z,100897.29
2019-02-08T01:27:38.672Z,100892.86
2019-02-08T01:30:04.664Z,100890.56
2019-02-08T01:32:30.655Z,100889.52
2019-02-08T01:34:56.635Z,100890.48
2019-02-08T01:37:22.667Z,100892.52
2019-02-08T01:39:48.642Z,100900.52
2019-02-08T01:42:14.659Z,100901.13
2019-02-08T01:44:40.633Z,100899.55
2019-02-08T01:47:06.650Z,100902.93
2019-02-08T01:49:32.723Z,100895.87
2019-02-08T01:51:58.763Z,100901.13
2019-02-08T01:54:24.747Z,100895.30
2019-02-08T01:56:50.729Z,100898.05
2019-02-08T01:59:16.709Z,100894.94
2019-02-08T02:01:42.772Z,100894.94
2019-02-08T02:04:08.752Z,100893.63
2019-02-08T02:06:34.740Z,100894.45
2019-02-08T02:09:00.715Z,100893.28
2019-02-08T02:11:26.712Z,100893.63
2019-02-08T02:13:52.700Z,100902.83
2019-02-08T02:16:18.755Z,100896.17
2019-02-08T02:18:44.747Z,100901.66
2019-02-08T02:21:10.814Z,100894.48
2019-02-08T02:23:36.808Z,100894.59
2019-02-08T02:26:02.772Z,100896.86
2019-02-08T02:28:28.791Z,100890.87
2019-02-08T02:30:54.788Z,100902.70
2019-02-08T02:33:20.758Z,100896.23
2019-02-08T02:35:46.786Z,100895.14
2019-02-08T02:38:12.759Z,100898.00
2019-02-08T02:40:38.739Z,100890.45
2019-02-08T02:43:04.740Z,100893.91
2019-02-08T02:45:30.768Z,100896.75
2019-02-08T02:47:56.832Z,100896.15
2019-02-08T02:50:22.820Z,100889.95
2019-02-08T02:52:48.810Z,100894.72
2019-02-08T02:55:14.820Z,100895.55
2019-02-08T02:57:40.833Z,100894.45
2019-02-08T03:00:06.822Z,100890.38
2019-02-08T03:02:32.829Z,100886.44
2019-02-08T03:04:58.840Z,100893.84
2019-02-08T03:07:24.929Z,100898.95
2019-02-08T03:09:50.956Z,100893.58
2019-02-08T03:12:16.936Z,100891.31
2019-02-08T03:14:42.916Z,100884.25
2019-02-08T03:17:08.970Z,100880.52
2019-02-08T03:19:34.983Z,100878.72
2019-02-08T03:22:00.970Z,100869.02
2019-02-08T03:24:26.943Z,100876.91
2019-02-08T03:26:52.968Z,100875.47
2019-02-08T03:29:18.971Z,100874.00
2019-02-08T03:31:44.969Z,100875.69
2019-02-08T03:34:10.975Z,100866.81
2019-02-08T03:36:36.964Z,100868.14
2019-02-08T03:39:02.957Z,100876.40
2019-02-08T03:41:28.939Z,100871.96
2019-02-08T03:43:54.928Z,100874.11
2019-02-08T03:46:21.007Z,100872.18
2019-02-08T03:48:46.993Z,100865.94
2019-02-08T03:51:12.988Z,100859.36
2019-02-08T03:53:39.033Z,100863.19
2019-02-08T03:56:05.053Z,100860.55
2019-02-08T03:58:31.040Z,100856.12
2019-02-08T04:00:57.108Z,100856.33
2019-02-08T04:03:23.098Z,100856.33
2019-02-08T04:05:49.122Z,100860.16
2019-02-08T04:08:15.160Z,100851.89
2019-02-08T04:10:41.159Z,100857.53
2019-02-08T04:13:07.156Z,100854.89
2019-02-08T04:15:33.143Z,100856.22
2019-02-08T04:17:59.112Z,100849.27
2019-02-08T04:20:25.098Z,100848.80
2019-02-08T04:22:51.146Z,100841.73
2019-02-08T04:25:17.128Z,100841.25
2019-02-08T04:27:43.146Z,100843.87
2019-02-08T04:30:09.123Z,100841.37
2019-02-08T04:32:35.143Z,100843.54
2019-02-08T04:35:01.120Z,100839.44
2019-02-08T04:37:27.116Z,100840.75
2019-02-08T04:39:53.173Z,100840.30
2019-02-08T04:42:19.160Z,100843.39
2019-02-08T04:44:45.168Z,100847.22
2019-02-08T04:47:11.204Z,100840.63
2019-02-08T04:49:37.214Z,100833.23
2019-02-08T04:52:03.222Z,100840.14
2019-02-08T04:54:29.200Z,100837.52
2019-02-08T04:56:55.192Z,100840.02
2019-02-08T04:59:21.156Z,100839.20
2019-02-08T05:01:47.190Z,100837.02
2019-02-08T05:04:13.185Z,100838.22
2019-02-08T05:06:39.271Z,100841.55
2019-02-08T05:09:05.266Z,100837.73
2019-02-08T05:11:31.234Z,100837.23
2019-02-08T05:13:57.348Z,100837.39
2019-02-08T05:16:23.328Z,100838.09
2019-02-08T05:18:49.318Z,100831.63
2019-02-08T05:21:15.304Z,100840.36
2019-02-08T05:23:41.325Z,100833.29
2019-02-08T05:26:07.322Z,100831.63
2019-02-08T05:28:33.310Z,100820.62
2019-02-08T05:30:59.316Z,100818.48
2019-02-08T05:33:25.309Z,100820.28
2019-02-08T05:35:51.310Z,100816.67
2019-02-08T05:38:17.286Z,100816.67
2019-02-08T05:40:43.270Z,100817.49
2019-02-08T05:43:09.276Z,100817.86
2019-02-08T05:45:35.299Z,100816.18
2019-02-08T05:48:01.340Z,100818.35
2019-02-08T05:50:27.346Z,100817.86
2019-02-08T05:52:53.387Z,100823.13
2019-02-08T05:55:19.403Z,100815.23
2019-02-08T05:57:45.368Z,100813.42
2019-02-08T06:00:11.406Z,100816.55
2019-02-08T06:02:37.393Z,100816.55
2019-02-08T06:05:03.468Z,100817.03
2019-02-08T06:07:29.455Z,100819.02
2019-02-08T06:09:55.459Z,100815.56
2019-02-08T06:12:21.504Z,100809.47
2019-02-08T06:14:47.601Z,100812.11
2019-02-08T06:17:13.620Z,100813.76
2019-02-08T06:19:39.706Z,100816.88
2019-02-08T06:22:05.825Z,100813.42
2019-02-08T06:24:32.024Z,100808.98
2019-02-08T06:26:58.099Z,100812.94
2019-02-08T06:29:24.152Z,100815.08
2019-02-08T06:31:50.171Z,100809.35
2019-02-08T06:34:16.210Z,100813.64
2019-02-08T06:36:42.251Z,100815.29
2019-02-08T06:39:08.358Z,100820.71
2019-02-08T06:41:34.369Z,100820.22
2019-02-08T06:44:00.372Z,100820.34
2019-02-08T06:46:26.463Z,100821.20
2019-02-08T06:48:52.484Z,100827.63
2019-02-08T06:51:18.516Z,100821.20
2019-02-08T06:53:44.547Z,100825.48
2019-02-08T06:56:10.553Z,100821.53
2019-02-08T06:58:36.662Z,100829.92
2019-02-08T07:01:02.635Z,100829.77
2019-02-08T07:03:30.723Z,100825.36
2019-02-08T07:05:56.733Z,100826.80
2019-02-08T07:08:22.714Z,100825.00
2019-02-08T07:10:48.704Z,100828.94
2019-02-08T07:13:14.732Z,100826.92
2019-02-08T07:15:40.715Z,100827.29
2019-02-08T07:18:06.712Z,100828.23
2019-02-08T07:20:32.701Z,100824.29
2019-02-08T07:22:58.711Z,100823.67
2019-02-08T07:25:24.696Z,100828.11
2019-02-08T07:27:50.730Z,100823.67
2019-02-08T07:30:16.756Z,100821.05
2019-02-08T07:32:42.756Z,100814.47
2019-02-08T07:35:08.754Z,100814.83
2019-02-08T07:37:34.924Z,100815.66
2019-02-08T07:40:00.897Z,100810.88
2019-02-08T07:42:26.873Z,100812.66
2019-02-08T07:44:52.864Z,100812.66
2019-02-08T07:47:21.864Z,100815.66
2019-02-08T07:49:47.916Z,100811.34
2019-02-08T07:52:13.922Z,100813.85
2019-02-08T07:54:39.946Z,100818.44
2019-02-08T07:57:05.932Z,100818.10
2019-02-08T07:59:32.055Z,100816.42
2019-02-08T08:01:58.076Z,100818.72
2019-02-08T08:04:24.073Z,100818.72
2019-02-08T08:06:50.075Z,100822.17
2019-02-08T08:09:16.062Z,100827.44
2019-02-08T08:11:42.073Z,100829.95
2019-02-08T08:14:08.056Z,100826.95
2019-02-08T08:16:34.029Z,100833.53
2019-02-08T08:19:00.079Z,100829.25
2019-02-08T08:21:26.130Z,100825.30
2019-02-08T08:23:52.148Z,100833.53
2019-02-08T08:26:18.125Z,100830.91
2019-02-08T08:28:44.132Z,100824.96
2019-02-08T08:31:10.241Z,100824.96
2019-02-08T08:33:36.257Z,100832.86
2019-02-08T08:36:02.261Z,100823.64
2019-02-08T08:38:28.248Z,100816.20
2019-02-08T08:40:54.260Z,100814.89
2019-02-08T08:43:20.345Z,100814.06
2019-02-08T08:45:46.338Z,100814.06
2019-02-08T08:48:12.310Z,100818.02
2019-02-08T08:50:38.540Z,100819.33
2019-02-08T08:53:04.733Z,100819.27
2019-02-08T08:55:30.747Z,100819.14
2019-02-08T08:57:56.733Z,100816.72
2019-02-08T09:00:22.744Z,100813.34
2019-02-08T09:02:48.745Z,100813.80
2019-02-08T09:05:14.739Z,100811.23
2019-02-08T09:07:40.859Z,100809.87
2019-02-08T09:10:06.910Z,100805.77
2019-02-08T09:12:32.893Z,100813.63
2019-02-08T09:14:58.926Z,100810.42
2019-02-08T09:17:24.959Z,100804.05
2019-02-08T09:19:50.929Z,100798.03
2019-02-08T09:22:16.934Z,100795.61
2019-02-08T09:24:42.917Z,100790.67
2019-02-08T09:27:08.914Z,100787.83
2019-02-08T09:29:34.921Z,100790.59
2019-02-08T09:32:01.038Z,100789.43
2019-02-08T09:34:27.026Z,100789.77
2019-02-08T09:36:53.055Z,100789.97
2019-02-08T09:39:19.037Z,100790.80
2019-02-08T09:41:45.038Z,100790.05
2019-02-08T09:44:11.071Z,100780.91
2019-02-08T09:46:37.204Z,100787.33
2019-02-08T09:49:03.218Z,100779.01
2019-02-08T09:51:29.219Z,100769.86
2019-02-08T09:53:55.227Z,100763.78
2019-02-08T09:56:21.222Z,100759.66
2019-02-08T09:58:47.225Z,100758.22
2019-02-08T10:01:13.289Z,100759.83
2019-02-08T10:03:39.292Z,100746.16
2019-02-08T10:06:05.321Z,100754.39
2019-02-08T10:08:31.376Z,100748.02
2019-02-08T10:10:57.375Z,100752.46
2019-02-08T10:13:23.422Z,100743.36
2019-02-08T10:15:49.428Z,100742.03
2019-02-08T10:18:15.426Z,100743.09
2019-02-08T10:20:42.592Z,100734.82
2019-02-08T10:23:08.632Z,100735.38
2019-02-08T10:25:34.733Z,100731.64
2019-02-08T10:28:00.818Z,100736.76
2019-02-08T10:30:26.823Z,100731.66
2019-02-08T10:32:52.803Z,100722.27
2019-02-08T10:35:18.878Z,100729.26
2019-02-08T10:37:44.885Z,100735.44
2019-02-08T10:40:10.877Z,100726.59
2019-02-08T10:42:36.880Z,100728.66
2019-02-08T10:45:02.864Z,100724.91
2019-02-08T10:47:28.891Z,100728.12
2019-02-08T10:49:54.907Z,100725.48
2019-02-08T10:52:20.920Z,100725.48
2019-02-08T10:54:46.927Z,100716.88
2019-02-08T10:57:13.003Z,100716.67
2019-02-08T10:59:38.998Z,100713.55
2019-02-08T11:02:04.967Z,100706.14
2019-02-08T11:04:31.080Z,100717.30
2019-02-08T11:06:57.070Z,100713.06
2019-02-08T11:09:23.143Z,100712.11
2019-02-08T11:11:49.136Z,100704.75
2019-02-08T11:14:15.142Z,100707.05
2019-02-08T11:16:41.147Z,100697.95
2019-02-08T11:19:07.152Z,100693.67
2019-02-08T11:21:33.215Z,100688.03
2019-02-08T11:23:59.188Z,100688.53
2019-02-08T11:26:25.186Z,100679.31
2019-02-08T11:28:51.257Z,100681.25
2019-02-08T11:31:17.274Z,100671.48
2019-02-08T11:33:43.254Z,100676.38
2019-02-08T11:36:09.246Z,100671.34
2019-02-08T11:38:35.274Z,100670.69
2019-02-08T11:41:01.289Z,100663.97
2019-02-08T11:43:27.331Z,100661.20
2019-02-08T11:45:53.353Z,100656.27
2019-02-08T11:48:19.371Z,100651.06
2019-02-08T11:50:45.392Z,100651.27
2019-02-08T11:53:11.421Z,100643.20
2019-02-08T11:55:37.489Z,100634.86
2019-02-08T11:58:03.512Z,100637.50
2019-02-08T12:00:29.582Z,100640.76
2019-02-08T12:02:55.666Z,100633.55
2019-02-08T12:05:21.676Z,100630.91
2019-02-08T12:07:47.652Z,100626.95
2019-02-08T12:10:13.756Z,100629.78
2019-02-08T12:12:39.763Z,100625.84
2019-02-08T12:15:05.874Z,100618.29
2019-02-08T12:17:31.926Z,100624.25
2019-02-08T12:19:57.931Z,100619.80
2019-02-08T12:22:24.179Z,100621.61
2019-02-08T12:24:50.514Z,100626.23
2019-02-08T12:27:16.654Z,100618.19
2019-02-08T12:29:42.725Z,100610.80
2019-02-08T12:32:08.782Z,100600.48
2019-02-08T12:34:34.801Z,100603.15
2019-02-08T12:37:00.776Z,100592.30
2019-02-08T12:39:26.810Z,100586.77
2019-02-08T12:41:52.858Z,100587.09
2019-02-08T12:44:18.871Z,100586.77
2019-02-08T12:46:44.861Z,100584.45
2019-02-08T12:49:11.892Z,100578.84
2019-02-08T12:51:37.927Z,100577.13
2019-02-08T12:54:03.895Z,100578.69
2019-02-08T12:56:29.927Z,100570.31
2019-02-08T12:58:55.968Z,100573.77
2019-02-08T13:01:22.008Z,100566.36
2019-02-08T13:03:48.044Z,100566.41
2019-02-08T13:06:14.040Z,100574.19
2019-02-08T13:08:40.024Z,100565.45
2019-02-08T13:11:06.101Z,100568.47
2019-02-08T13:13:32.134Z,100563.27
2019-02-08T13:15:58.159Z,100564.90
2019-02-08T13:18:24.196Z,100561.02
2019-02-08T13:20:50.218Z,100558.50
2019-02-08T13:23:16.354Z,100554.32
2019-02-08T13:25:42.473Z,100558.91
2019-02-08T13:28:08.468Z,100559.02
2019-02-08T13:30:34.526Z,100548.97
2019-02-08T13:33:00.602Z,100539.55
2019-02-08T13:35:26.655Z,100537.87
2019-02-08T13:37:53.236Z,100541.63
2019-02-08T13:40:19.253Z,100528.13
2019-02-08T13:42:45.247Z,100531.71
2019-02-08T13:45:11.329Z,100528.89
2019-02-08T13:47:37.333Z,100529.55
2019-02-08T13:50:03.309Z,100522.90
2019-02-08T13:52:29.305Z,100519.25
2019-02-08T13:54:55.341Z,100516.25
2019-02-08T13:57:21.334Z,100526.80
2019-02-08T13:59:47.319Z,100516.42
2019-02-08T14:02:14.399Z,100519.05
2019-02-08T14:04:40.421Z,100515.23
2019-02-08T14:07:06.410Z,100508.64
2019-02-08T14:09:32.591Z,100508.31
2019-02-08T14:11:58.726Z,100507.00
2019-02-08T14:14:24.754Z,100502.36
2019-02-08T14:16:50.753Z,100486.19
2019-02-08T14:19:18.800Z,100477.95
2019-02-08T14:21:44.631Z,100471.67
2019-02-08T14:24:10.616Z,100470.16
2019-02-08T14:26:36.607Z,100460.58
2019-02-08T14:29:02.629Z,100453.98
2019-02-08T14:31:28.676Z,100450.20
2019-02-08T14:33:54.714Z,100442.76
2019-02-08T14:36:20.837Z,100443.56
2019-02-08T14:38:46.828Z,100440.92
2019-02-08T14:41:12.803Z,100440.56
2019-02-08T14:43:38.816Z,100436.91
2019-02-08T14:46:04.840Z,100426.23
2019-02-08T14:48:30.812Z,100425.41
2019-02-08T14:50:56.815Z,100426.73
2019-02-08T14:53:22.959Z,100423.25
2019-02-08T14:55:49.113Z,100432.00
2019-02-08T14:58:16.717Z,100425.88
2019-02-08T15:00:43.023Z,100430.33
2019-02-08T15:03:09.003Z,100421.60
2019-02-08T15:05:34.994Z,100418.14
2019-02-08T15:08:01.012Z,100413.02
2019-02-08T15:10:30.170Z,100404.28
2019-02-08T15:12:56.181Z,100403.46
2019-02-08T15:15:22.174Z,100391.25
2019-02-08T15:17:48.263Z,100387.47
2019-02-08T15:20:14.366Z,100381.02
2019-02-08T15:22:40.377Z,100372.78
2019-02-08T15:25:07.576Z,100364.03
2019-02-08T15:27:33.591Z,100367.02
2019-02-08T15:29:59.588Z,100363.38
2019-02-08T15:32:25.605Z,100360.38
2019-02-08T15:34:51.713Z,100356.13
2019-02-08T15:37:17.729Z,100356.13
2019-02-08T15:39:43.747Z,100352.67
2019-02-08T15:42:09.727Z,100353.98
2019-02-08T15:44:35.707Z,100351.36
2019-02-08T15:47:02.072Z,100342.63
2019-02-08T15:49:28.152Z,100337.03
2019-02-08T15:51:54.234Z,100329.59
2019-02-08T15:54:20.224Z,100336.18
2019-02-08T15:56:46.222Z,100340.12
2019-02-08T15:59:12.210Z,100331.41
2019-02-08T16:01:38.287Z,100343.26
2019-02-08T16:04:04.416Z,100335.03
2019-02-08T16:06:30.486Z,100323.81
2019-02-08T16:08:56.488Z,100327.27
2019-02-08T16:11:22.605Z,100317.72
2019-02-08T16:13:48.593Z,100315.41
2019-02-08T16:16:14.585Z,100320.49
2019-02-08T16:18:40.567Z,100308.64
2019-02-08T16:21:06.568Z,100307.68
2019-02-08T16:23:32.634Z,100308.01
2019-02-08T16:25:58.662Z,100307.68
2019-02-08T16:28:24.691Z,100305.05
2019-02-08T16:30:50.672Z,100297.97
2019-02-08T16:33:16.678Z,100296.98
2019-02-08T16:35:42.760Z,100294.84
2019-02-08T16:38:08.746Z,100296.16
2019-02-08T16:40:34.759Z,100286.61
2019-02-08T16:43:00.769Z,100282.17
2019-02-08T16:45:26.837Z,100280.03
2019-02-08T16:47:52.840Z,100287.57
2019-02-08T16:50:18.863Z,100283.63
2019-02-08T16:52:44.880Z,100283.98
2019-02-08T16:55:10.873Z,100274.41
2019-02-08T16:57:36.873Z,100263.87
2019-02-08T17:00:02.859Z,100254.79
2019-02-08T17:02:29.001Z,100250.52
2019-02-08T17:04:55.009Z,100239.84
2019-02-08T17:07:21.008Z,100248.20
2019-02-08T17:09:47.104Z,100244.25
2019-02-08T17:12:13.243Z,100229.77
2019-02-08T17:14:39.242Z,100237.20
2019-02-08T17:17:05.242Z,100222.72
2019-02-08T17:19:31.276Z,100231.58
2019-02-08T17:21:57.428Z,100223.19
2019-02-08T17:24:23.418Z,100220.77
2019-02-08T17:26:49.410Z,100224.36
2019-02-08T17:29:15.402Z,100210.23
2019-02-08T17:31:42.622Z,100201.16
2019-02-08T17:34:08.725Z,100193.75
2019-02-08T17:36:34.860Z,100194.70
2019-02-08T17:39:00.881Z,100193.06
2019-02-08T17:41:27.017Z,100190.27
2019-02-08T17:43:53.198Z,100199.16
2019-02-08T17:46:19.312Z,100190.27
2019-02-08T17:48:45.327Z,100189.44
2019-02-08T17:51:11.415Z,100187.30
2019-02-08T17:53:37.408Z,100186.81
2019-02-08T17:56:03.445Z,100190.27
2019-02-08T17:58:29.442Z,100198.34
2019-02-08T18:00:55.449Z,100191.75
2019-02-08T18:03:21.496Z,100195.70
2019-02-08T18:05:47.517Z,100197.02
2019-02-08T18:08:13.545Z,100188.63
2019-02-08T18:10:39.601Z,100189.12
2019-02-08T18:13:05.637Z,100181.71
2019-02-08T18:15:31.738Z,100184.48
2019-02-08T18:17:57.802Z,100185.80
2019-02-08T18:20:23.843Z,100192.88
2019-02-08T18:22:49.876Z,100184.98
2019-02-08T18:25:17.237Z,100187.75
2019-02-08T18:27:43.432Z,100187.75
2019-02-08T18:30:09.515Z,100189.08
2019-02-08T18:32:35.701Z,100182.48
2019-02-08T18:35:02.736Z,100175.58
2019-02-08T18:37:28.760Z,100175.91
2019-02-08T18:39:54.764Z,100166.20
2019-02-08T18:42:20.809Z,100165.38
2019-02-08T18:44:46.783Z,100161.78
2019-02-08T18:47:12.795Z,100160.46
2019-02-08T18:49:38.927Z,100152.56
2019-02-08T18:52:04.907Z,100140.36
2019-02-08T18:54:30.938Z,100141.67
2019-02-08T18:56:57.279Z,100132.95
2019-02-08T18:59:24.380Z,100125.88
2019-02-08T19:01:50.370Z,100121.42
2019-02-08T19:04:16.429Z,100114.84
2019-02-08T19:06:42.491Z,100107.80
2019-02-08T19:09:08.607Z,100111.75
2019-02-08T19:11:34.678Z,100099.54
2019-02-08T19:14:00.838Z,100093.45
2019-02-08T19:16:26.842Z,100104.80
2019-02-08T19:18:52.839Z,100097.90
2019-02-08T19:21:18.819Z,100097.08
2019-02-08T19:23:44.828Z,100094.45
2019-02-08T19:26:11.026Z,100092.28
2019-02-08T19:28:37.078Z,100080.60
2019-02-08T19:31:03.242Z,100088.00
2019-02-08T19:33:29.289Z,100077.97
2019-02-08T19:35:55.499Z,100066.45
2019-02-08T19:38:21.545Z,100064.63
2019-02-08T19:40:48.025Z,100057.58
2019-02-08T19:43:14.334Z,100056.73
2019-02-08T19:45:40.452Z,100058.05
2019-02-08T19:48:06.518Z,100056.27
2019-02-08T19:50:32.604Z,100052.78
2019-02-08T19:52:58.749Z,100057.58
2019-02-08T19:55:24.832Z,100050.50
2019-02-08T19:57:50.968Z,100048.83
2019-02-08T20:00:16.987Z,100033.03
2019-02-08T20:02:43.411Z,100046.70
2019-02-08T20:05:09.393Z,100047.52
2019-02-08T20:07:35.434Z,100052.78
2019-02-08T20:10:02.477Z,100043.73
2019-02-08T20:12:28.476Z,100035.48
2019-02-08T20:14:54.462Z,100030.22
2019-02-08T20:17:20.461Z,100036.97
2019-02-08T20:19:48.894Z,100026.91
2019-02-08T20:22:14.880Z,100021.18
2019-02-08T20:24:40.902Z,100017.23
2019-02-08T20:27:06.899Z,100016.05
2019-02-08T20:29:32.873Z,100011.61
2019-02-08T20:31:58.906Z,100011.78
2019-02-08T20:34:24.917Z,100014.03
2019-02-08T20:36:51.005Z,100008.27
2019-02-08T20:39:17.013Z,100005.20
2019-02-08T20:41:43.073Z,100008.27
2019-02-08T20:44:09.089Z,99999.05
2019-02-08T20:46:36.199Z,99995.48
2019-02-08T20:49:03.888Z,99983.25
2019-02-08T20:51:29.870Z,99986.88
2019-02-08T20:53:56.043Z,99975.36
2019-02-08T20:56:22.037Z,99968.34
2019-02-08T20:58:50.409Z,99974.92
2019-02-08T21:01:15.852Z,99970.09
2019-02-08T21:03:41.883Z,99944.91
2019-02-08T21:06:07.896Z,99934.05
2019-02-08T21:08:34.031Z,99923.66
2019-02-08T21:11:00.053Z,99914.45
2019-02-08T21:13:26.070Z,99911.15
2019-02-08T21:15:52.129Z,99912.14
2019-02-08T21:18:18.388Z,99909.19
2019-02-08T21:20:44.416Z,99908.69
2019-02-08T21:23:10.531Z,99905.70
2019-02-08T21:25:37.047Z,99899.30
2019-02-08T21:28:03.104Z,99889.42
2019-02-08T21:30:29.170Z,99877.58
2019-02-08T21:32:55.152Z,99870.17
2019-02-08T21:35:21.176Z,99877.25
2019-02-08T21:37:47.220Z,99868.83
2019-02-08T21:40:13.337Z,99878.86
2019-02-08T21:42:39.614Z,99865.38
2019-02-08T21:45:06.732Z,99857.98
2019-02-08T21:47:32.720Z,99855.49
2019-02-08T21:49:59.789Z,99857.31
2019-02-08T21:52:25.767Z,99858.63
2019-02-08T21:54:51.763Z,99854.33
2019-02-08T21:57:17.782Z,99859.27
2019-02-08T21:59:43.776Z,99858.77
2019-02-08T22:02:09.788Z,99860.73
2019-02-08T22:04:35.782Z,99864.67
2019-02-08T22:07:01.782Z,99853.69
2019-02-08T22:09:27.798Z,99854.65
2019-02-08T22:11:54.061Z,99847.40
2019-02-08T22:14:20.051Z,99853.52
2019-02-08T22:16:46.084Z,99846.58
2019-02-08T22:19:12.167Z,99847.89
2019-02-08T22:21:38.149Z,99849.86
2019-02-08T22:24:04.144Z,99836.38
2019-02-08T22:26:30.247Z,99836.70
2019-02-08T22:28:56.243Z,99829.66
2019-02-08T22:31:22.227Z,99825.20
2019-02-08T22:33:48.349Z,99833.74
2019-02-08T22:36:14.325Z,99828.80
2019-02-08T22:38:40.298Z,99829.80
2019-02-08T22:41:06.290Z,99815.64
2019-02-08T22:43:34.041Z,99825.50
2019-02-08T22:46:00.162Z,99815.65
2019-02-08T22:48:26.173Z,99801.50
2019-02-08T22:50:52.236Z,99800.03
2019-02-08T22:53:18.596Z,99791.12
2019-02-08T22:55:44.626Z,99794.09
2019-02-08T22:58:10.634Z,99775.33
2019-02-08T23:00:36.627Z,99788.16
2019-02-08T23:03:02.665Z,99773.37
2019-02-08T23:05:28.636Z,99768.58
2019-02-08T23:07:54.698Z,99757.23
2019-02-08T23:10:20.676Z,99753.30
2019-02-08T23:12:46.683Z,99757.23
2019-02-08T23:15:12.681Z,99759.38
2019-02-08T23:17:38.690Z,99755.92
2019-02-08T23:20:04.731Z,99752.62
2019-02-08T23:22:30.740Z,99751.48
2019-02-08T23:24:56.759Z,99755.58
2019-02-08T23:27:22.754Z,99753.09
2019-02-08T23:29:48.825Z,99753.77
2019-02-08T23:32:14.845Z,99761.66
2019-02-08T23:34:40.855Z,99748.83
2019-02-08T23:37:06.920Z,99750.14
2019-02-08T23:39:32.903Z,99740.44
2019-02-08T23:41:58.878Z,99727.93
2019-02-08T23:44:24.881Z,99742.89
2019-02-08T23:46:50.945Z,99741.08
2019-02-08T23:49:16.944Z,99733.87
2019-02-08T23:51:42.944Z,99728.44
2019-02-08T23:54:08.935Z,99724.66
2019-02-08T23:56:34.924Z,99726.44
2019-02-08T23:59:00.908Z,99718.55
